createdAt,value
2022-10-14T00:01:23.820Z,11.20
2022-10-14T00:03:55.049Z,13.30
2022-10-14T00:06:26.265Z,13.23
2022-10-14T00:08:55.008Z,11.38
2022-10-14T00:11:25.256Z,13.50
2022-10-14T00:13:55.943Z,13.82
2022-10-14T00:16:27.215Z,11.68
2022-10-14T00:18:57.499Z,11.98
2022-10-14T00:21:26.317Z,11.68
2022-10-14T00:23:55.265Z,9.93
2022-10-14T00:26:25.930Z,16.42
2022-10-14T00:28:54.659Z,13.27
2022-10-14T00:31:23.096Z,10.68
2022-10-14T00:33:51.790Z,11.02
2022-10-14T00:36:24.726Z,12.55
2022-10-14T00:38:54.009Z,10.18
2022-10-14T00:41:24.794Z,10.57
2022-10-14T00:43:59.599Z,11.20
2022-10-14T00:46:30.236Z,12.07
2022-10-14T00:48:59.996Z,12.07
2022-10-14T00:51:31.418Z,12.10
2022-10-14T00:53:59.871Z,10.30
2022-10-14T00:56:31.554Z,9.85
2022-10-14T00:59:01.648Z,11.75
2022-10-14T01:01:29.973Z,14.57
2022-10-14T01:03:58.483Z,10.25
2022-10-14T01:06:42.506Z,9.60
2022-10-14T01:12:09.828Z,9.88
2022-10-14T01:14:47.206Z,10.93
2022-10-14T01:17:24.813Z,10.85
2022-10-14T01:20:29.731Z,10.75
2022-10-14T01:23:19.766Z,11.20
2022-10-14T01:26:01.975Z,9.30
2022-10-14T01:28:45.024Z,9.07
2022-10-14T01:31:19.506Z,9.47
2022-10-14T01:33:53.934Z,9.10
2022-10-14T01:36:27.310Z,7.97
2022-10-14T01:39:02.068Z,8.75
2022-10-14T01:41:34.565Z,11.23
2022-10-14T01:44:07.391Z,10.32
2022-10-14T01:46:39.623Z,8.80
2022-10-14T01:49:13.553Z,8.57
2022-10-14T01:51:50.476Z,9.20
2022-10-14T01:54:23.979Z,8.65
2022-10-14T01:56:54.746Z,8.65
2022-10-14T01:59:25.519Z,10.25
2022-10-14T02:01:55.360Z,9.95
2022-10-14T02:04:24.858Z,9.27
2022-10-14T02:07:01.633Z,9.70
2022-10-14T02:09:40.023Z,10.27
2022-10-14T02:12:19.071Z,11.98
2022-10-14T02:14:55.621Z,11.18
2022-10-14T02:17:32.598Z,11.65
2022-10-14T02:20:09.143Z,11.07
2022-10-14T02:22:40.872Z,21.30
2022-10-14T02:25:14.127Z,9.00
2022-10-14T02:27:45.984Z,10.57
2022-10-14T02:30:16.578Z,11.68
2022-10-14T02:32:48.192Z,8.38
2022-10-14T02:35:19.615Z,12.65
2022-10-14T02:37:50.169Z,11.93
2022-10-14T02:40:24.255Z,9.55
2022-10-14T02:42:52.777Z,8.63
2022-10-14T02:45:22.150Z,7.60
2022-10-14T02:47:51.918Z,6.38
2022-10-14T02:50:20.270Z,8.10
2022-10-14T02:52:49.194Z,9.52
2022-10-14T02:55:17.903Z,5.47
2022-10-14T02:57:46.635Z,6.80
2022-10-14T03:00:16.129Z,5.40
2022-10-14T03:02:44.500Z,6.60
2022-10-14T03:05:14.421Z,5.63
2022-10-14T03:07:42.722Z,10.77
2022-10-14T03:10:11.179Z,7.03
2022-10-14T03:12:39.627Z,7.05
2022-10-14T03:15:09.523Z,5.78
2022-10-14T03:17:38.117Z,10.43
2022-10-14T03:20:07.371Z,6.00
2022-10-14T03:22:37.167Z,5.75
2022-10-14T03:25:05.780Z,4.10
2022-10-14T03:27:34.149Z,5.18
2022-10-14T03:30:02.883Z,3.60
2022-10-14T03:32:31.375Z,5.15
2022-10-14T03:34:59.778Z,4.25
2022-10-14T03:37:28.127Z,4.57
2022-10-14T03:39:57.939Z,4.47
2022-10-14T03:42:26.544Z,6.25
2022-10-14T03:44:54.963Z,5.28
2022-10-14T03:47:23.608Z,7.63
2022-10-14T03:49:52.641Z,5.47
2022-10-14T03:52:21.505Z,5.10
2022-10-14T03:54:50.007Z,5.20
2022-10-14T03:57:19.819Z,7.43
2022-10-14T03:59:48.178Z,5.57
2022-10-14T04:02:16.500Z,5.63
2022-10-14T04:04:45.342Z,6.50
2022-10-14T04:07:13.683Z,4.20
2022-10-14T04:09:42.071Z,5.68
2022-10-14T04:12:10.415Z,5.50
2022-10-14T04:14:40.551Z,5.03
2022-10-14T04:17:08.931Z,4.97
2022-10-14T04:19:37.323Z,5.78
2022-10-14T04:22:05.983Z,4.65
2022-10-14T04:24:34.699Z,4.30
2022-10-14T04:27:03.119Z,3.90
2022-10-14T04:29:31.482Z,4.43
2022-10-14T04:32:01.529Z,6.55
2022-10-14T04:34:29.855Z,4.88
2022-10-14T04:36:58.404Z,5.32
2022-10-14T04:39:26.879Z,4.30
2022-10-14T04:41:55.138Z,4.60
2022-10-14T04:44:23.874Z,3.70
2022-10-14T04:46:52.263Z,3.50
2022-10-14T04:49:22.761Z,4.72
2022-10-14T04:51:51.061Z,3.75
2022-10-14T04:54:19.567Z,4.13
2022-10-14T04:56:48.031Z,2.88
2022-10-14T04:59:16.545Z,2.85
2022-10-14T05:01:44.915Z,3.50
2022-10-14T05:04:13.405Z,3.20
2022-10-14T05:06:43.536Z,2.67
2022-10-14T05:09:11.903Z,2.65
2022-10-14T05:11:40.280Z,2.85
2022-10-14T05:14:08.686Z,3.10
2022-10-14T05:16:36.979Z,2.78
2022-10-14T05:19:05.520Z,3.00
2022-10-14T05:21:33.995Z,3.08
2022-10-14T05:24:04.215Z,2.38
2022-10-14T05:26:32.787Z,4.75
2022-10-14T05:29:01.250Z,3.35
2022-10-14T05:31:29.559Z,2.38
2022-10-14T05:33:57.951Z,2.63
2022-10-14T05:36:26.459Z,2.97
2022-10-14T05:38:58.786Z,3.60
2022-10-14T05:41:28.655Z,3.08
2022-10-14T05:43:57.093Z,3.53
2022-10-14T05:46:25.511Z,5.57
2022-10-14T05:48:53.823Z,2.83
2022-10-14T05:51:23.093Z,3.75
2022-10-14T05:53:51.420Z,3.67
2022-10-14T05:56:20.391Z,2.00
2022-10-14T05:58:50.199Z,3.72
2022-10-14T06:01:18.519Z,2.20
2022-10-14T06:03:46.881Z,2.85
2022-10-14T06:06:15.879Z,2.30
2022-10-14T06:08:45.167Z,2.40
2022-10-14T06:11:14.030Z,2.28
2022-10-14T06:13:43.454Z,2.33
2022-10-14T06:16:15.089Z,3.42
2022-10-14T06:18:43.471Z,2.10
2022-10-14T06:21:12.969Z,2.00
2022-10-14T06:23:41.303Z,2.63
2022-10-14T06:26:10.334Z,3.00
2022-10-14T06:28:39.326Z,2.83
2022-10-14T06:31:08.435Z,4.10
2022-10-14T06:33:38.276Z,4.95
2022-10-14T06:36:08.312Z,6.82
2022-10-14T06:38:36.659Z,5.30
2022-10-14T06:41:05.063Z,3.20
2022-10-14T06:43:35.418Z,3.33
2022-10-14T06:46:04.926Z,5.55
2022-10-14T06:48:33.468Z,2.78
2022-10-14T06:51:04.122Z,2.10
2022-10-14T06:53:32.651Z,3.13
2022-10-14T06:56:02.348Z,4.25
2022-10-14T06:58:31.355Z,4.55
2022-10-14T07:01:03.672Z,2.70
2022-10-14T07:03:32.514Z,3.17
2022-10-14T07:06:03.986Z,2.80
2022-10-14T07:08:32.474Z,3.38
2022-10-14T07:11:01.196Z,5.07
2022-10-14T07:13:29.695Z,4.20
2022-10-14T07:15:58.115Z,4.07
2022-10-14T07:18:26.913Z,4.47
2022-10-14T07:20:55.199Z,3.67
2022-10-14T07:23:25.055Z,3.22
2022-10-14T07:25:53.732Z,3.33
2022-10-14T07:28:22.099Z,2.33
2022-10-14T07:30:59.430Z,3.63
2022-10-14T07:33:28.245Z,2.40
2022-10-14T07:35:56.935Z,2.80
2022-10-14T07:38:26.674Z,4.78
2022-10-14T07:41:00.452Z,3.88
2022-10-14T07:46:01.874Z,4.05
2022-10-14T07:48:33.020Z,4.45
2022-10-14T07:51:13.517Z,6.03
2022-10-14T07:53:43.345Z,4.90
2022-10-14T07:56:11.857Z,4.43
2022-10-14T07:58:44.320Z,5.07
2022-10-14T08:01:15.018Z,3.97
2022-10-14T08:03:44.000Z,3.53
2022-10-14T08:06:12.982Z,6.35
2022-10-14T08:08:44.155Z,10.60
2022-10-14T08:11:14.827Z,4.68
2022-10-14T08:13:46.185Z,4.78
2022-10-14T08:16:16.959Z,5.00
2022-10-14T08:18:46.279Z,5.68
2022-10-14T08:21:15.902Z,6.38
2022-10-14T08:23:45.813Z,5.28
2022-10-14T08:26:21.707Z,8.00
2022-10-14T08:28:50.786Z,5.25
2022-10-14T08:31:19.459Z,6.85
2022-10-14T08:33:48.243Z,5.40
2022-10-14T08:36:17.398Z,6.53
2022-10-14T08:38:47.667Z,4.85
2022-10-14T08:41:32.219Z,5.38
2022-10-14T08:44:12.702Z,4.10
2022-10-14T08:46:49.405Z,5.13
2022-10-14T08:49:27.270Z,2.70
2022-10-14T08:52:00.794Z,3.10
2022-10-14T08:54:38.225Z,3.22
2022-10-14T08:57:07.938Z,3.10
2022-10-14T08:59:41.853Z,1.95
2022-10-14T09:02:22.999Z,5.88
2022-10-14T09:04:52.116Z,2.95
2022-10-14T09:07:22.562Z,4.28
2022-10-14T09:09:56.004Z,1.88
2022-10-14T09:12:29.739Z,2.97
2022-10-14T09:17:37.992Z,3.05
2022-10-14T09:20:18.156Z,4.90
2022-10-14T09:22:48.541Z,3.42
2022-10-14T09:25:19.723Z,4.57
2022-10-14T09:27:48.495Z,3.88
2022-10-14T09:30:19.360Z,3.50
2022-10-14T09:32:51.614Z,3.35
2022-10-14T09:35:26.520Z,3.05
2022-10-14T09:37:55.624Z,2.30
2022-10-14T09:40:31.155Z,3.35
2022-10-14T09:43:04.395Z,2.92
2022-10-14T09:45:49.468Z,1.83
2022-10-14T09:48:22.039Z,2.72
2022-10-14T09:50:53.111Z,4.35
2022-10-14T09:53:29.235Z,2.72
2022-10-14T09:56:01.209Z,2.58
2022-10-14T09:58:34.273Z,2.00
2022-10-14T10:01:03.711Z,2.65
2022-10-14T10:03:33.986Z,2.97
2022-10-14T10:06:06.020Z,2.50
2022-10-14T10:08:36.199Z,4.03
2022-10-14T10:11:09.442Z,3.17
2022-10-14T10:13:41.750Z,3.00
2022-10-14T10:16:21.027Z,2.03
2022-10-14T10:18:49.864Z,3.70
2022-10-14T10:21:21.386Z,3.97
2022-10-14T10:23:55.520Z,4.82
2022-10-14T10:26:31.799Z,4.88
2022-10-14T10:29:02.719Z,4.13
2022-10-14T10:31:53.418Z,5.18
2022-10-14T10:34:54.318Z,6.88
2022-10-14T10:37:31.133Z,5.97
2022-10-14T10:40:31.892Z,4.68
2022-10-14T10:43:21.807Z,4.65
2022-10-14T10:46:02.388Z,5.18
2022-10-14T10:48:43.055Z,4.63
2022-10-14T10:51:15.767Z,5.15
2022-10-14T10:54:03.221Z,5.50
2022-10-14T10:56:38.915Z,6.00
2022-10-14T10:59:35.357Z,4.93
2022-10-14T11:02:28.709Z,5.10
2022-10-14T11:05:03.918Z,5.90
2022-10-14T11:07:59.925Z,5.88
2022-10-14T11:10:52.557Z,5.22
2022-10-14T11:13:29.360Z,3.80
2022-10-14T11:16:08.339Z,4.82
2022-10-14T11:18:46.456Z,5.70
2022-10-14T11:21:25.963Z,4.38
2022-10-14T11:24:04.693Z,6.63
2022-10-14T11:26:53.492Z,5.18
2022-10-14T11:29:47.397Z,4.68
2022-10-14T11:32:24.063Z,5.00
2022-10-14T11:35:06.235Z,5.78
2022-10-14T11:37:45.144Z,5.50
2022-10-14T11:40:22.567Z,6.30
2022-10-14T11:43:07.214Z,4.20
2022-10-14T11:45:51.852Z,6.40
2022-10-14T11:48:39.451Z,5.10
2022-10-14T11:51:14.486Z,5.35
2022-10-14T11:53:50.765Z,7.03
2022-10-14T11:56:30.659Z,6.90
2022-10-14T11:59:21.743Z,4.85
2022-10-14T12:01:53.940Z,6.15
2022-10-14T12:04:29.900Z,9.90
2022-10-14T12:07:05.828Z,6.55
2022-10-14T12:09:40.756Z,4.57
2022-10-14T12:12:11.835Z,8.65
2022-10-14T12:14:44.194Z,9.27
2022-10-14T12:17:20.765Z,5.15
2022-10-14T12:19:52.597Z,4.50
2022-10-14T12:22:24.529Z,4.95
2022-10-14T12:24:55.724Z,5.80
2022-10-14T12:27:26.992Z,5.95
2022-10-14T12:29:57.622Z,4.95
2022-10-14T12:32:27.564Z,6.00
2022-10-14T12:34:58.415Z,5.35
2022-10-14T12:37:51.617Z,9.57
2022-10-14T12:40:31.262Z,6.93
2022-10-14T12:43:04.142Z,8.18
2022-10-14T12:45:34.732Z,5.03
2022-10-14T12:48:08.566Z,6.60
2022-10-14T12:50:40.368Z,5.68
2022-10-14T12:53:17.932Z,6.25
2022-10-14T12:55:51.767Z,5.95
2022-10-14T12:58:30.461Z,5.50
2022-10-14T13:01:03.588Z,5.50
2022-10-14T13:03:36.126Z,6.95
2022-10-14T13:06:32.618Z,7.10
2022-10-14T13:09:42.024Z,7.57
2022-10-14T13:12:42.247Z,11.68
2022-10-14T13:15:59.780Z,8.77
2022-10-14T13:18:51.009Z,8.77
2022-10-14T13:21:48.867Z,8.25
2022-10-14T13:24:24.399Z,9.10
2022-10-14T13:27:10.630Z,10.30
2022-10-14T13:30:04.332Z,7.97
2022-10-14T13:32:41.263Z,9.48
2022-10-14T13:35:19.959Z,6.80
2022-10-14T13:37:57.957Z,7.70
2022-10-14T13:40:31.844Z,5.78
2022-10-14T13:43:02.129Z,8.93
2022-10-14T13:45:38.375Z,7.75
2022-10-14T13:48:14.014Z,7.32
2022-10-14T13:50:44.351Z,5.60
2022-10-14T13:53:17.880Z,6.72
2022-10-14T13:55:54.427Z,6.32
2022-10-14T13:58:24.324Z,9.85
2022-10-14T14:01:01.742Z,9.90
2022-10-14T14:03:34.035Z,9.25
2022-10-14T14:06:03.464Z,10.55
2022-10-14T14:08:40.810Z,6.97
2022-10-14T14:11:19.043Z,7.57
2022-10-14T14:13:57.556Z,7.57
2022-10-14T14:16:34.034Z,8.43
2022-10-14T14:19:08.363Z,7.57
2022-10-14T14:21:37.473Z,7.70
2022-10-14T14:24:17.407Z,6.85
2022-10-14T14:26:47.930Z,8.45
2022-10-14T14:29:19.270Z,8.48
2022-10-14T14:34:39.842Z,9.32
2022-10-14T14:39:58.177Z,8.05
2022-10-14T14:42:29.733Z,7.13
2022-10-14T14:45:02.792Z,7.18
2022-10-14T14:47:33.384Z,9.88
2022-10-14T14:50:31.398Z,8.88
2022-10-14T14:52:52.999Z,11.18
2022-10-14T14:55:43.607Z,7.50
2022-10-14T14:58:24.387Z,9.60
2022-10-14T15:00:55.095Z,10.60
2022-10-14T15:03:25.344Z,7.28
2022-10-14T15:05:58.686Z,8.73
2022-10-14T15:08:30.211Z,12.95
2022-10-14T15:11:00.628Z,9.95
2022-10-14T15:13:45.651Z,7.72
2022-10-14T15:16:14.356Z,8.02
2022-10-14T15:18:43.819Z,6.85
2022-10-14T15:21:20.308Z,5.20
2022-10-14T15:24:03.519Z,9.98
2022-10-14T15:26:34.980Z,6.68
2022-10-14T15:29:16.025Z,9.30
2022-10-14T15:31:46.391Z,7.45
2022-10-14T15:34:20.924Z,8.27
2022-10-14T15:36:52.393Z,9.40
2022-10-14T15:39:21.795Z,9.02
2022-10-14T15:41:50.234Z,7.75
2022-10-14T15:44:20.348Z,8.45
2022-10-14T15:47:06.299Z,8.45
2022-10-14T15:49:39.283Z,6.43
2022-10-14T15:52:07.571Z,9.27
2022-10-14T15:54:36.543Z,8.35
2022-10-14T15:57:05.899Z,9.68
2022-10-14T15:59:36.078Z,8.75
2022-10-14T16:02:05.556Z,8.10
2022-10-14T16:04:37.264Z,8.77
2022-10-14T16:07:08.267Z,6.97
2022-10-14T16:09:36.918Z,6.22
2022-10-14T16:12:06.637Z,8.13
2022-10-14T16:14:36.665Z,5.60
2022-10-14T16:17:05.350Z,7.63
2022-10-14T16:19:35.067Z,8.88
2022-10-14T16:22:03.639Z,6.00
2022-10-14T16:24:31.894Z,6.47
2022-10-14T16:27:00.387Z,5.18
2022-10-14T16:29:28.708Z,6.25
2022-10-14T16:31:59.402Z,4.75
2022-10-14T16:34:27.771Z,7.50
2022-10-14T16:36:56.154Z,4.10
2022-10-14T16:39:24.928Z,3.90
2022-10-14T16:41:53.555Z,5.65
2022-10-14T16:44:28.148Z,4.07
2022-10-14T16:47:18.891Z,5.00
2022-10-14T16:49:49.357Z,4.50
2022-10-14T16:52:18.455Z,2.88
2022-10-14T16:54:47.023Z,4.22
2022-10-14T16:57:16.153Z,3.35
2022-10-14T16:59:44.931Z,4.25
2022-10-14T17:02:17.937Z,3.83
2022-10-14T17:04:48.390Z,3.97
2022-10-14T17:07:17.669Z,2.78
2022-10-14T17:09:46.246Z,3.53
2022-10-14T17:12:14.982Z,3.20
2022-10-14T17:14:43.307Z,1.88
2022-10-14T17:17:13.267Z,1.83
2022-10-14T17:19:43.449Z,2.15
2022-10-14T17:22:12.439Z,1.90
2022-10-14T17:24:41.059Z,2.90
2022-10-14T17:27:09.605Z,2.63
2022-10-14T17:29:38.345Z,2.58
2022-10-14T17:32:06.917Z,3.72
2022-10-14T17:34:35.886Z,2.47
2022-10-14T17:39:37.673Z,3.60
2022-10-14T17:42:06.263Z,7.03
2022-10-14T17:44:34.661Z,3.78
2022-10-14T17:47:03.434Z,3.50
2022-10-14T17:49:32.675Z,2.42
2022-10-14T17:52:02.654Z,4.55
2022-10-14T17:54:32.424Z,4.55
2022-10-14T17:57:00.929Z,2.17
2022-10-14T17:59:29.349Z,2.30
2022-10-14T18:02:02.650Z,2.47
2022-10-14T18:04:33.405Z,2.08
2022-10-14T18:07:02.735Z,2.35
2022-10-14T18:09:34.224Z,1.92
2022-10-14T18:12:08.689Z,2.17
2022-10-14T18:14:38.203Z,1.63
2022-10-14T18:17:06.756Z,1.10
2022-10-14T18:19:35.587Z,3.22
2022-10-14T18:22:04.295Z,0.60
2022-10-14T18:24:38.664Z,1.23
2022-10-14T18:27:07.818Z,0.75
2022-10-14T18:29:36.502Z,2.58
2022-10-14T18:32:04.931Z,2.40
2022-10-14T18:34:33.864Z,2.03
2022-10-14T18:37:02.591Z,0.77
2022-10-14T18:39:32.120Z,1.48
2022-10-14T18:42:02.247Z,1.42
2022-10-14T18:44:30.977Z,1.00
2022-10-14T18:46:59.841Z,0.70
2022-10-14T18:49:29.646Z,1.75
2022-10-14T18:51:59.421Z,0.77
2022-10-14T18:54:30.547Z,1.80
2022-10-14T18:57:00.417Z,0.30
2022-10-14T18:59:32.480Z,0.32
2022-10-14T19:02:02.616Z,3.03
2022-10-14T19:04:32.320Z,0.68
2022-10-14T19:07:02.310Z,0.50
2022-10-14T19:09:35.813Z,0.35
2022-10-14T19:12:26.983Z,0.82
2022-10-14T19:14:58.436Z,0.70
2022-10-14T19:17:28.542Z,1.10
2022-10-14T19:20:01.207Z,1.50
2022-10-14T19:22:32.069Z,1.65
2022-10-14T19:25:01.773Z,3.25
2022-10-14T19:27:30.916Z,2.92
2022-10-14T19:30:02.034Z,2.70
2022-10-14T19:32:31.806Z,3.22
2022-10-14T19:35:02.377Z,3.80
2022-10-14T19:37:31.828Z,3.90
2022-10-14T19:40:02.490Z,3.35
2022-10-14T19:42:32.697Z,6.55
2022-10-14T19:45:03.946Z,3.70
2022-10-14T19:47:34.144Z,4.75
2022-10-14T19:50:03.789Z,5.65
2022-10-14T19:52:33.430Z,3.60
2022-10-14T19:55:03.385Z,4.68
2022-10-14T19:57:33.251Z,5.75
2022-10-14T20:00:04.728Z,7.78
2022-10-14T20:02:34.652Z,6.25
2022-10-14T20:05:04.784Z,5.13
2022-10-14T20:07:34.380Z,4.65
2022-10-14T20:10:04.133Z,4.53
2022-10-14T20:12:34.708Z,6.28
2022-10-14T20:15:06.331Z,4.20
2022-10-14T20:17:36.072Z,3.50
2022-10-14T20:20:06.220Z,3.55
2022-10-14T20:22:36.064Z,4.18
2022-10-14T20:25:06.038Z,3.30
2022-10-14T20:27:35.828Z,3.33
2022-10-14T20:30:07.780Z,2.65
2022-10-14T20:32:37.657Z,3.38
2022-10-14T20:35:11.541Z,2.60
2022-10-14T20:37:44.716Z,3.28
2022-10-14T20:40:15.617Z,3.38
2022-10-14T20:42:45.504Z,2.60
2022-10-14T20:45:15.319Z,3.03
2022-10-14T20:47:43.903Z,2.70
2022-10-14T20:50:12.364Z,2.30
2022-10-14T20:52:40.822Z,2.38
2022-10-14T20:55:09.685Z,3.05
2022-10-14T20:57:38.074Z,2.92
2022-10-14T21:00:07.404Z,4.28
2022-10-14T21:02:37.247Z,3.33
2022-10-14T21:05:06.422Z,3.22
2022-10-14T21:07:35.455Z,5.15
2022-10-14T21:10:04.172Z,6.43
2022-10-14T21:12:32.556Z,3.55
2022-10-14T21:15:00.944Z,3.30
2022-10-14T21:17:29.402Z,3.45
2022-10-14T21:19:59.359Z,3.42
2022-10-14T21:22:55.343Z,3.38
2022-10-14T21:25:23.751Z,3.10
2022-10-14T21:27:52.089Z,3.63
2022-10-14T21:30:20.465Z,2.45
2022-10-14T21:32:48.842Z,3.35
2022-10-14T21:35:18.595Z,3.45
2022-10-14T21:37:46.971Z,2.63
2022-10-14T21:40:15.716Z,2.70
2022-10-14T21:42:44.127Z,2.38
2022-10-14T21:45:12.610Z,2.75
2022-10-14T21:47:41.033Z,1.67
2022-10-14T21:50:10.093Z,1.60
2022-10-14T21:52:39.921Z,2.17
2022-10-14T21:55:08.978Z,1.50
2022-10-14T21:57:37.799Z,2.80
2022-10-14T22:00:08.939Z,1.17
2022-10-14T22:02:37.611Z,1.48
2022-10-14T22:05:06.683Z,1.35
2022-10-14T22:07:35.053Z,1.63
2022-10-14T22:10:25.636Z,0.80
2022-10-14T22:12:53.967Z,0.73
2022-10-14T22:15:22.763Z,0.75
2022-10-14T22:17:51.344Z,0.98
2022-10-14T22:20:20.189Z,1.17
2022-10-14T22:22:48.555Z,0.77
2022-10-14T22:25:18.640Z,1.90
2022-10-14T22:27:47.352Z,2.80
2022-10-14T22:30:16.731Z,1.40
2022-10-14T22:32:45.419Z,0.80
2022-10-14T22:35:13.708Z,1.00
2022-10-14T22:37:42.260Z,0.40
2022-10-14T22:40:12.004Z,2.92
2022-10-14T22:42:42.463Z,0.40
2022-10-14T22:45:12.688Z,0.77
2022-10-14T22:47:41.032Z,1.13
2022-10-14T22:50:10.051Z,0.70
2022-10-14T22:52:39.129Z,2.80
2022-10-14T22:55:09.141Z,1.73
2022-10-14T22:57:37.549Z,0.80
2022-10-14T23:00:08.499Z,2.25
2022-10-14T23:02:37.009Z,0.85
2022-10-14T23:05:06.012Z,2.25
2022-10-14T23:07:34.720Z,1.73
2022-10-14T23:10:03.143Z,2.10
2022-10-14T23:12:31.593Z,0.90
2022-10-14T23:15:00.092Z,1.17
2022-10-14T23:17:31.061Z,2.85
2022-10-14T23:19:59.367Z,1.10
2022-10-14T23:22:28.008Z,1.95
2022-10-14T23:24:56.395Z,3.53
2022-10-14T23:27:24.838Z,1.23
2022-10-14T23:29:53.259Z,0.75
2022-10-14T23:32:21.630Z,0.40
2022-10-14T23:34:51.595Z,1.25
2022-10-14T23:37:20.334Z,1.20
2022-10-14T23:39:49.461Z,2.42
2022-10-14T23:42:17.875Z,1.13
2022-10-14T23:44:46.311Z,0.40
2022-10-14T23:47:14.797Z,1.33
2022-10-14T23:49:43.182Z,1.80
2022-10-14T23:52:12.956Z,0.40
2022-10-14T23:54:41.303Z,0.43
2022-10-14T23:57:09.755Z,0.52
2022-10-14T23:59:38.218Z,0.40
